EDXW/GWT METAR and TAF weather

Enter ICAO airport designator
Station Type Date Time Source
EDXW METAR 2020/12/06 01:50 UTC NOAA

EDXW 060150Z AUTO 14007KT 4300 // BKN170/// 01/01 Q1005


Station Type Date Time Source
EDXW Decoded METAR 2020/12/06 01:50 UTC NOAA

Westerland / Sylt, Germany (EDXW) 54-55N 008-21E 20M
Dec 05, 2020 - 08:50 PM EST / 2020.12.06 0150 UTC
Wind: from the SE (140 degrees) at 8 MPH (7 KT):0
Visibility: 2 mile(s):0
Sky conditions: mostly cloudy
Temperature: 33 F (1 C)
Windchill: 26 F (-3 C):1
Dew Point: 33 F (1 C)
Relative Humidity: 100%
Pressure (altimeter): 29.68 in. Hg (1005 hPa)
ob: EDXW 060150Z AUTO 14007KT 4300 // BKN170/// 01/01 Q1005
cycle: 2

Station Type Date Time Source
EDXW TAF 2009/07/07 14:00 UTC NOAA

TAF EDXW 071400Z 0715/0719 22015G25KT 9999 SCT020

Example: see airport list